createdAt,value
2023-03-03T00:00:48.987Z,18.30
2023-03-03T00:03:19.295Z,15.13
2023-03-03T00:05:45.799Z,16.83
2023-03-03T00:08:12.719Z,15.90
2023-03-03T00:10:40.136Z,15.38
2023-03-03T00:13:15.223Z,16.38
2023-03-03T00:15:41.776Z,12.20
2023-03-03T00:18:18.919Z,16.40
2023-03-03T00:21:01.004Z,16.55
2023-03-03T00:23:39.522Z,18.02
2023-03-03T00:26:34.049Z,14.77
2023-03-03T00:29:01.915Z,18.13
2023-03-03T00:31:36.339Z,17.63
2023-03-03T00:34:18.379Z,15.48
2023-03-03T00:36:44.964Z,20.25
2023-03-03T00:39:31.503Z,13.77
2023-03-03T00:41:59.726Z,15.75
2023-03-03T00:44:38.312Z,15.15
2023-03-03T00:47:31.844Z,20.52
2023-03-03T00:50:29.878Z,18.65
2023-03-03T00:53:35.749Z,16.80
2023-03-03T00:56:02.275Z,16.17
2023-03-03T00:58:29.462Z,17.05
2023-03-03T01:00:59.056Z,18.23
2023-03-03T01:03:26.423Z,16.08
2023-03-03T01:05:54.367Z,18.15
2023-03-03T01:08:39.187Z,17.25
2023-03-03T01:11:26.681Z,17.42
2023-03-03T01:13:53.449Z,17.33
2023-03-03T01:16:20.428Z,17.52
2023-03-03T01:18:46.953Z,15.90
2023-03-03T01:21:13.712Z,17.63
2023-03-03T01:23:40.251Z,14.75
2023-03-03T01:26:07.031Z,17.27
2023-03-03T01:28:34.192Z,11.50
2023-03-03T01:31:02.710Z,13.00
2023-03-03T01:33:29.729Z,18.73
2023-03-03T01:36:34.533Z,18.88
2023-03-03T01:39:01.248Z,18.08
2023-03-03T01:41:33.879Z,16.52
2023-03-03T01:44:00.502Z,19.60
2023-03-03T01:46:44.998Z,17.95
2023-03-03T01:49:19.311Z,18.08
2023-03-03T01:51:51.830Z,15.63
2023-03-03T01:54:25.215Z,4.70
2023-03-03T01:56:57.780Z,14.65
2023-03-03T01:59:29.348Z,17.80
2023-03-03T02:01:56.011Z,17.05
2023-03-03T02:04:22.976Z,22.02
2023-03-03T02:06:58.067Z,16.58
2023-03-03T02:09:43.819Z,18.33
2023-03-03T02:12:13.773Z,18.80
2023-03-03T02:14:40.222Z,18.95
2023-03-03T02:17:06.905Z,19.33
2023-03-03T02:19:50.118Z,17.05
2023-03-03T02:22:21.894Z,16.35
2023-03-03T02:24:53.347Z,15.48
2023-03-03T02:27:19.861Z,16.90
2023-03-03T02:29:46.386Z,19.20
2023-03-03T02:32:12.984Z,17.98
2023-03-03T02:34:50.773Z,19.27
2023-03-03T02:37:18.245Z,16.50
2023-03-03T02:39:45.071Z,17.48
2023-03-03T02:42:17.525Z,17.20
2023-03-03T02:44:44.061Z,16.67
2023-03-03T02:47:10.582Z,18.30
2023-03-03T02:49:37.468Z,12.35
2023-03-03T02:52:07.142Z,15.57
2023-03-03T02:54:33.644Z,11.93
2023-03-03T02:57:01.099Z,11.85
2023-03-03T02:59:28.355Z,16.40
2023-03-03T03:01:55.116Z,18.15
2023-03-03T03:04:23.866Z,17.65
2023-03-03T03:06:51.322Z,15.73
2023-03-03T03:09:19.356Z,14.63
2023-03-03T03:11:45.947Z,15.98
2023-03-03T03:14:13.674Z,13.93
2023-03-03T03:16:40.914Z,13.95
2023-03-03T03:19:08.254Z,12.98
2023-03-03T03:21:35.112Z,12.82
2023-03-03T03:24:44.277Z,9.05
2023-03-03T03:27:10.753Z,12.50
2023-03-03T03:30:30.755Z,14.55
2023-03-03T03:32:57.254Z,15.80
2023-03-03T03:35:23.716Z,14.35
2023-03-03T03:37:50.204Z,13.60
2023-03-03T03:40:16.741Z,13.10
2023-03-03T03:42:49.318Z,15.70
2023-03-03T03:45:15.893Z,15.13
2023-03-03T03:47:42.689Z,16.90
2023-03-03T03:50:10.151Z,15.70
2023-03-03T03:52:36.823Z,17.10
2023-03-03T03:55:04.152Z,16.67
2023-03-03T03:57:30.710Z,14.60
2023-03-03T03:59:57.520Z,15.90
2023-03-03T04:02:24.081Z,14.88
2023-03-03T04:04:50.627Z,16.88
2023-03-03T04:07:17.161Z,15.48
2023-03-03T04:09:43.612Z,16.00
2023-03-03T04:12:10.046Z,18.15
2023-03-03T04:14:36.613Z,16.77
2023-03-03T04:17:03.085Z,16.75
2023-03-03T04:19:29.554Z,15.35
2023-03-03T04:21:56.025Z,17.70
2023-03-03T04:24:22.533Z,17.40
2023-03-03T04:26:48.983Z,17.48
2023-03-03T04:29:15.427Z,17.17
2023-03-03T04:31:41.942Z,17.65
2023-03-03T04:34:08.481Z,17.45
2023-03-03T04:36:34.914Z,19.70
2023-03-03T04:39:01.341Z,18.25
2023-03-03T04:41:27.770Z,18.50
2023-03-03T04:43:54.260Z,19.38
2023-03-03T04:46:20.726Z,20.42
2023-03-03T04:48:47.264Z,19.58
2023-03-03T04:51:14.923Z,12.95
2023-03-03T04:53:41.373Z,20.70
2023-03-03T04:56:08.194Z,18.75
2023-03-03T04:58:34.738Z,12.30
2023-03-03T05:01:01.271Z,19.83
2023-03-03T05:03:27.943Z,20.10
2023-03-03T05:05:54.530Z,19.58
2023-03-03T05:08:21.097Z,19.45
2023-03-03T05:10:51.824Z,18.35
2023-03-03T05:13:18.390Z,20.63
2023-03-03T05:15:52.747Z,22.70
2023-03-03T05:18:19.921Z,20.45
2023-03-03T05:21:02.324Z,20.13
2023-03-03T05:23:29.060Z,20.00
2023-03-03T05:25:55.554Z,20.27
2023-03-03T05:28:22.352Z,20.10
2023-03-03T05:30:49.123Z,18.40
2023-03-03T05:33:18.837Z,18.48
2023-03-03T05:36:03.720Z,21.13
2023-03-03T05:38:30.184Z,22.33
2023-03-03T05:40:56.767Z,21.38
2023-03-03T05:43:23.229Z,21.30
2023-03-03T05:45:55.639Z,21.77
2023-03-03T05:48:30.927Z,20.38
2023-03-03T05:51:00.804Z,19.73
2023-03-03T05:56:25.542Z,20.98
2023-03-03T05:59:03.721Z,18.60
2023-03-03T06:01:30.459Z,20.63
2023-03-03T06:04:15.023Z,20.67
2023-03-03T06:06:41.598Z,20.90
2023-03-03T06:09:08.126Z,22.85
2023-03-03T06:11:34.596Z,21.60
2023-03-03T06:14:01.075Z,21.85
2023-03-03T06:16:27.571Z,20.00
2023-03-03T06:18:54.079Z,21.67
2023-03-03T06:21:20.532Z,21.55
2023-03-03T06:23:47.012Z,21.25
2023-03-03T06:26:13.506Z,23.83
2023-03-03T06:28:39.941Z,20.17
2023-03-03T06:31:06.380Z,20.33
2023-03-03T06:33:32.797Z,21.83
2023-03-03T06:35:59.532Z,22.15
2023-03-03T06:38:26.029Z,20.38
2023-03-03T06:40:52.581Z,23.73
2023-03-03T06:43:19.055Z,19.30
2023-03-03T06:49:17.758Z,20.85
2023-03-03T06:51:46.229Z,19.80
2023-03-03T06:54:30.601Z,18.85
2023-03-03T06:57:05.589Z,13.70
2023-03-03T06:59:32.084Z,19.23
2023-03-03T07:01:58.582Z,21.90
2023-03-03T07:04:31.103Z,20.77
2023-03-03T07:07:00.277Z,20.20
2023-03-03T07:09:30.125Z,18.45
2023-03-03T07:12:19.058Z,21.20
2023-03-03T07:14:55.412Z,20.98
2023-03-03T07:17:24.790Z,19.48
2023-03-03T07:19:51.678Z,19.55
2023-03-03T07:22:25.269Z,20.05
2023-03-03T07:24:57.090Z,18.25
2023-03-03T07:27:30.664Z,19.23
2023-03-03T07:30:27.497Z,18.80
2023-03-03T07:32:58.690Z,21.65
2023-03-03T07:35:40.985Z,23.77
2023-03-03T07:38:25.015Z,19.48
2023-03-03T07:40:55.260Z,22.17
2023-03-03T07:43:38.076Z,19.10
2023-03-03T07:46:10.617Z,19.45
2023-03-03T07:48:42.569Z,14.68
2023-03-03T07:51:20.012Z,17.98
2023-03-03T07:53:47.441Z,18.15
2023-03-03T07:56:20.662Z,18.58
2023-03-03T07:58:47.484Z,17.77
2023-03-03T08:01:28.893Z,18.45
2023-03-03T08:03:56.500Z,18.38
2023-03-03T08:06:32.722Z,17.45
2023-03-03T08:09:18.745Z,17.52
2023-03-03T08:12:14.493Z,17.05
2023-03-03T08:14:40.956Z,18.33
2023-03-03T08:17:17.794Z,19.80
2023-03-03T08:19:44.259Z,15.73
2023-03-03T08:22:16.264Z,17.45
2023-03-03T08:24:42.824Z,16.48
2023-03-03T08:27:09.381Z,17.55
2023-03-03T08:29:35.931Z,18.40
2023-03-03T08:32:02.601Z,18.58
2023-03-03T08:34:29.143Z,17.10
2023-03-03T08:36:58.148Z,25.30
2023-03-03T08:39:24.701Z,17.65
2023-03-03T08:41:51.269Z,18.17
2023-03-03T08:44:17.790Z,16.67
2023-03-03T08:46:44.469Z,16.33
2023-03-03T08:49:10.994Z,16.35
2023-03-03T08:51:37.560Z,15.48
2023-03-03T08:54:04.116Z,16.00
2023-03-03T08:56:30.568Z,14.45
2023-03-03T08:59:02.560Z,9.18
2023-03-03T09:01:31.018Z,13.70
2023-03-03T09:03:57.589Z,13.05
2023-03-03T09:06:24.138Z,14.43
2023-03-03T09:08:50.961Z,11.25
2023-03-03T09:11:24.252Z,10.98
2023-03-03T09:13:53.287Z,11.55
2023-03-03T09:16:22.215Z,14.30
2023-03-03T09:18:48.783Z,13.95
2023-03-03T09:21:28.940Z,12.18
2023-03-03T09:24:01.711Z,12.30
2023-03-03T09:26:29.618Z,10.27
2023-03-03T09:29:14.310Z,12.10
2023-03-03T09:31:45.468Z,7.00
2023-03-03T09:34:37.165Z,13.88
2023-03-03T09:37:28.631Z,12.82
2023-03-03T09:39:57.442Z,12.75
2023-03-03T09:42:29.688Z,11.20
2023-03-03T09:45:17.960Z,8.98
2023-03-03T09:48:18.168Z,8.38
2023-03-03T09:51:03.401Z,12.45
2023-03-03T09:53:51.665Z,11.20
2023-03-03T09:56:23.976Z,11.68
2023-03-03T09:59:42.322Z,13.43
2023-03-03T10:02:36.082Z,12.90
2023-03-03T10:05:14.312Z,7.85
2023-03-03T10:07:46.933Z,12.77
2023-03-03T10:10:35.204Z,10.93
2023-03-03T10:13:19.385Z,12.30
2023-03-03T10:16:17.561Z,12.80
2023-03-03T10:19:01.031Z,11.02
2023-03-03T10:21:39.679Z,12.73
2023-03-03T10:24:38.131Z,13.60
2023-03-03T10:27:36.716Z,11.85
2023-03-03T10:30:41.250Z,12.25
2023-03-03T10:33:26.374Z,11.15
2023-03-03T10:36:30.888Z,11.80
2023-03-03T10:39:34.825Z,11.13
2023-03-03T10:42:16.618Z,10.77
2023-03-03T10:44:58.879Z,12.40
2023-03-03T10:47:47.011Z,12.20
2023-03-03T10:50:55.792Z,14.45
2023-03-03T10:53:31.693Z,10.07
2023-03-03T10:56:01.166Z,9.82
2023-03-03T10:58:30.607Z,14.27
2023-03-03T11:01:45.311Z,11.50
2023-03-03T11:04:33.690Z,14.23
2023-03-03T11:07:47.739Z,13.65
2023-03-03T11:10:35.719Z,12.15
2023-03-03T11:13:32.350Z,11.57
2023-03-03T11:16:34.499Z,12.57
2023-03-03T11:19:11.356Z,13.75
2023-03-03T11:21:46.785Z,11.68
2023-03-03T11:24:19.242Z,12.65
2023-03-03T11:26:51.767Z,11.20
2023-03-03T11:29:21.300Z,12.27
2023-03-03T11:31:57.628Z,12.15
2023-03-03T11:34:47.200Z,13.15
2023-03-03T11:38:09.474Z,12.77
2023-03-03T11:40:49.318Z,13.48
2023-03-03T11:43:36.230Z,12.43
2023-03-03T11:46:11.526Z,10.65
2023-03-03T11:49:00.763Z,12.33
2023-03-03T11:51:48.732Z,12.15
2023-03-03T11:54:28.959Z,12.07
2023-03-03T11:57:12.006Z,11.93
2023-03-03T11:59:47.264Z,10.85
2023-03-03T12:04:54.292Z,12.15
2023-03-03T12:07:57.686Z,11.85
2023-03-03T12:10:31.049Z,10.52
2023-03-03T12:13:16.391Z,8.75
2023-03-03T12:16:25.359Z,10.05
2023-03-03T12:19:18.109Z,8.90
2023-03-03T12:21:56.665Z,11.93
2023-03-03T12:24:23.093Z,10.38
2023-03-03T12:27:02.120Z,12.45
2023-03-03T12:29:41.418Z,11.82
2023-03-03T12:32:30.598Z,11.40
2023-03-03T12:35:41.922Z,10.93
2023-03-03T12:38:28.588Z,9.60
2023-03-03T12:41:08.650Z,10.70
2023-03-03T12:44:00.142Z,10.68
2023-03-03T12:46:29.948Z,11.88
2023-03-03T12:48:56.698Z,11.43
2023-03-03T12:51:41.285Z,8.95
2023-03-03T12:54:26.561Z,11.30
2023-03-03T12:57:03.698Z,9.93
2023-03-03T13:00:11.698Z,9.98
2023-03-03T13:02:58.584Z,10.88
2023-03-03T13:05:45.777Z,9.95
2023-03-03T13:08:23.748Z,10.35
2023-03-03T13:11:00.363Z,10.55
2023-03-03T13:13:29.739Z,9.38
2023-03-03T13:16:06.543Z,9.52
2023-03-03T13:18:49.292Z,9.63
2023-03-03T13:21:34.968Z,9.68
2023-03-03T13:24:32.746Z,9.77
2023-03-03T13:27:07.361Z,10.77
2023-03-03T13:29:36.441Z,11.27
2023-03-03T13:32:17.436Z,11.75
2023-03-03T13:34:58.760Z,10.15
2023-03-03T13:37:46.822Z,11.05
2023-03-03T13:40:13.395Z,9.27
2023-03-03T13:42:45.501Z,9.93
2023-03-03T13:45:31.130Z,11.23
2023-03-03T13:48:00.783Z,9.98
2023-03-03T13:50:36.760Z,12.30
2023-03-03T13:53:38.635Z,12.20
2023-03-03T13:56:13.860Z,12.07
2023-03-03T13:59:04.494Z,11.00
2023-03-03T14:01:34.008Z,11.30
2023-03-03T14:04:03.600Z,11.20
2023-03-03T14:06:30.399Z,12.63
2023-03-03T14:09:04.673Z,10.65
2023-03-03T14:11:43.078Z,11.68
2023-03-03T14:14:28.480Z,10.82
2023-03-03T14:17:04.244Z,11.57
2023-03-03T14:19:54.247Z,9.98
2023-03-03T14:22:46.863Z,12.75
2023-03-03T14:25:15.673Z,10.45
2023-03-03T14:27:48.350Z,10.30
2023-03-03T14:30:43.876Z,12.98
2023-03-03T14:33:10.321Z,14.07
2023-03-03T14:35:56.602Z,12.20
2023-03-03T14:38:45.073Z,11.13
2023-03-03T14:41:11.881Z,11.05
2023-03-03T14:43:39.394Z,12.40
2023-03-03T14:46:27.393Z,11.90
2023-03-03T14:48:56.596Z,12.52
2023-03-03T14:51:27.171Z,12.85
2023-03-03T14:53:53.881Z,13.05
2023-03-03T14:56:30.752Z,12.95
2023-03-03T14:59:18.254Z,12.65
2023-03-03T15:01:45.110Z,11.90
2023-03-03T15:04:14.421Z,11.95
2023-03-03T15:06:43.741Z,11.20
2023-03-03T15:09:30.444Z,12.90
2023-03-03T15:11:58.721Z,12.38
2023-03-03T15:14:45.769Z,12.95
2023-03-03T15:17:38.101Z,10.48
2023-03-03T15:20:22.677Z,12.10
2023-03-03T15:23:19.556Z,11.25
2023-03-03T15:25:58.936Z,10.65
2023-03-03T15:28:56.023Z,12.40
2023-03-03T15:31:30.262Z,12.38
2023-03-03T15:34:28.032Z,11.27
2023-03-03T15:37:13.243Z,11.18
2023-03-03T15:40:13.436Z,12.70
2023-03-03T15:42:46.609Z,12.38
2023-03-03T15:45:29.305Z,12.20
2023-03-03T15:48:07.640Z,12.15
2023-03-03T15:50:47.074Z,12.10
2023-03-03T15:53:37.765Z,12.23
2023-03-03T15:56:16.327Z,11.98
2023-03-03T15:59:04.434Z,11.50
2023-03-03T16:01:34.611Z,12.13
2023-03-03T16:04:09.596Z,11.93
2023-03-03T16:07:22.200Z,11.10
2023-03-03T16:09:57.744Z,12.15
2023-03-03T16:12:47.874Z,11.57
2023-03-03T16:15:17.507Z,11.25
2023-03-03T16:18:08.780Z,11.07
2023-03-03T16:20:40.359Z,12.27
2023-03-03T16:23:31.210Z,12.68
2023-03-03T16:26:35.539Z,12.07
2023-03-03T16:29:20.020Z,11.13
2023-03-03T16:32:12.692Z,11.80
2023-03-03T16:34:58.878Z,11.52
2023-03-03T16:37:36.158Z,11.00
2023-03-03T16:40:23.747Z,11.07
2023-03-03T16:42:59.204Z,11.43
2023-03-03T16:45:31.086Z,12.15
2023-03-03T16:47:57.543Z,12.15
2023-03-03T16:50:48.917Z,12.02
2023-03-03T16:53:18.325Z,13.85
2023-03-03T16:56:08.268Z,13.73
2023-03-03T16:58:41.749Z,13.93
2023-03-03T17:01:11.337Z,13.02
2023-03-03T17:03:50.774Z,12.82
2023-03-03T17:06:35.741Z,12.35
2023-03-03T17:09:31.535Z,13.13
2023-03-03T17:12:23.272Z,12.80
2023-03-03T17:14:55.897Z,13.13
2023-03-03T17:17:33.903Z,12.90
2023-03-03T17:20:22.161Z,13.10
2023-03-03T17:23:08.821Z,12.65
2023-03-03T17:25:39.453Z,12.98
2023-03-03T17:28:15.003Z,12.60
2023-03-03T17:30:56.361Z,13.02
2023-03-03T17:33:51.363Z,12.18
2023-03-03T17:36:28.862Z,13.23
2023-03-03T17:38:57.992Z,14.85
2023-03-03T17:42:01.973Z,13.32
2023-03-03T17:44:39.420Z,13.70
2023-03-03T17:47:10.073Z,15.63
2023-03-03T17:49:51.424Z,15.20
2023-03-03T17:52:36.714Z,13.52
2023-03-03T17:55:40.820Z,13.85
2023-03-03T17:58:34.449Z,15.65
2023-03-03T18:01:17.674Z,15.82
2023-03-03T18:03:56.241Z,15.45
2023-03-03T18:06:55.808Z,13.60
2023-03-03T18:09:48.126Z,14.70
2023-03-03T18:12:36.912Z,13.18
2023-03-03T18:15:17.176Z,13.73
2023-03-03T18:18:01.747Z,16.52
2023-03-03T18:21:01.852Z,12.95
2023-03-03T18:23:28.239Z,15.55
2023-03-03T18:26:00.610Z,15.13
2023-03-03T18:29:27.068Z,16.77
2023-03-03T18:31:53.655Z,17.67
2023-03-03T18:34:20.154Z,19.33
2023-03-03T18:37:19.104Z,18.42
2023-03-03T18:40:09.544Z,17.75
2023-03-03T18:42:40.788Z,17.83
2023-03-03T18:45:20.088Z,18.48
2023-03-03T18:48:09.567Z,15.65
2023-03-03T18:50:42.198Z,16.73
2023-03-03T18:53:14.578Z,17.75
2023-03-03T18:55:44.713Z,17.73
2023-03-03T18:58:14.150Z,17.35
2023-03-03T19:00:50.009Z,24.05
2023-03-03T19:03:54.745Z,20.23
2023-03-03T19:06:32.484Z,18.48
2023-03-03T19:08:59.450Z,19.25
2023-03-03T19:11:51.767Z,44.28
2023-03-03T19:14:39.718Z,25.67
2023-03-03T19:17:18.337Z,18.40
2023-03-03T19:20:12.807Z,19.45
2023-03-03T19:22:46.746Z,17.73
2023-03-03T19:25:18.394Z,18.02
2023-03-03T19:27:59.967Z,17.45
2023-03-03T19:31:05.114Z,18.08
2023-03-03T19:33:46.860Z,19.48
2023-03-03T19:36:32.009Z,19.65
2023-03-03T19:39:01.513Z,17.70
2023-03-03T19:41:56.196Z,18.52
2023-03-03T19:44:53.359Z,17.85
2023-03-03T19:47:33.531Z,9.60
2023-03-03T19:50:12.028Z,14.25
2023-03-03T19:52:45.784Z,20.85
2023-03-03T19:55:33.240Z,23.40
2023-03-03T19:58:09.147Z,23.30
2023-03-03T20:00:43.632Z,21.10
2023-03-03T20:03:28.668Z,23.60
2023-03-03T20:06:30.030Z,23.40
2023-03-03T20:09:26.823Z,18.70
2023-03-03T20:12:05.699Z,22.67
2023-03-03T20:14:45.430Z,22.70
2023-03-03T20:17:21.405Z,18.20
2023-03-03T20:20:13.176Z,22.48
2023-03-03T20:23:02.380Z,20.25
2023-03-03T20:25:35.754Z,21.80
2023-03-03T20:28:27.077Z,21.40
2023-03-03T20:31:25.844Z,21.60
2023-03-03T20:34:01.213Z,22.50
2023-03-03T20:36:32.211Z,22.67
2023-03-03T20:39:01.398Z,25.52
2023-03-03T20:41:27.847Z,22.92
2023-03-03T20:44:26.307Z,24.30
2023-03-03T20:47:11.542Z,24.55
2023-03-03T20:49:40.874Z,22.13
2023-03-03T20:52:16.313Z,22.55
2023-03-03T20:54:57.225Z,21.17
2023-03-03T20:57:42.108Z,21.13
2023-03-03T21:00:21.163Z,17.98
2023-03-03T21:02:50.750Z,15.88
2023-03-03T21:05:22.550Z,15.55
2023-03-03T21:07:56.533Z,15.43
2023-03-03T21:10:26.509Z,11.38
2023-03-03T21:12:58.749Z,9.35
2023-03-03T21:15:35.595Z,7.40
2023-03-03T21:18:20.978Z,6.93
2023-03-03T21:20:47.537Z,6.20
2023-03-03T21:23:14.508Z,5.70
2023-03-03T21:25:41.117Z,6.10
2023-03-03T21:28:21.163Z,5.75
2023-03-03T21:31:00.658Z,5.95
2023-03-03T21:33:42.148Z,5.90
2023-03-03T21:36:14.783Z,6.55
2023-03-03T21:38:41.363Z,6.88
2023-03-03T21:41:08.632Z,6.57
2023-03-03T21:43:37.505Z,6.05
2023-03-03T21:46:04.233Z,6.10
2023-03-03T21:48:30.783Z,3.75
2023-03-03T21:50:57.307Z,5.63
2023-03-03T21:53:24.168Z,5.07
2023-03-03T21:55:51.084Z,5.68
2023-03-03T21:58:17.564Z,5.90
2023-03-03T22:00:44.540Z,6.38
2023-03-03T22:03:12.184Z,6.13
2023-03-03T22:05:38.678Z,5.97
2023-03-03T22:08:05.363Z,6.07
2023-03-03T22:10:32.128Z,6.30
2023-03-03T22:12:58.563Z,5.28
2023-03-03T22:15:25.189Z,5.00
2023-03-03T22:17:51.698Z,5.90
2023-03-03T22:20:18.275Z,4.97
2023-03-03T22:22:44.829Z,3.47
2023-03-03T22:25:11.379Z,4.68
2023-03-03T22:27:37.837Z,5.72
2023-03-03T22:30:04.773Z,4.93
2023-03-03T22:32:31.239Z,5.68
2023-03-03T22:34:57.723Z,5.63
2023-03-03T22:37:24.189Z,6.20
2023-03-03T22:39:50.662Z,6.55
2023-03-03T22:42:17.135Z,6.90
2023-03-03T22:44:45.815Z,5.45
2023-03-03T22:47:12.472Z,6.35
2023-03-03T22:49:38.947Z,6.32
2023-03-03T22:52:05.505Z,5.72
2023-03-03T22:54:32.014Z,4.97
2023-03-03T22:56:58.468Z,4.50
2023-03-03T22:59:24.915Z,4.82
2023-03-03T23:01:51.362Z,5.53
2023-03-03T23:04:20.091Z,4.82
2023-03-03T23:06:46.596Z,5.13
2023-03-03T23:09:13.136Z,4.93
2023-03-03T23:11:39.599Z,5.97
2023-03-03T23:14:06.152Z,5.32
2023-03-03T23:16:32.702Z,5.15
2023-03-03T23:18:59.218Z,4.82
2023-03-03T23:21:25.694Z,4.90
2023-03-03T23:23:52.225Z,4.20
2023-03-03T23:26:18.704Z,4.57
2023-03-03T23:28:45.144Z,4.63
2023-03-03T23:31:11.622Z,4.60
2023-03-03T23:33:38.068Z,5.00
2023-03-03T23:36:04.857Z,4.30
2023-03-03T23:38:31.351Z,4.90
2023-03-03T23:40:57.811Z,4.07
2023-03-03T23:43:24.333Z,4.13
2023-03-03T23:45:50.852Z,4.32
2023-03-03T23:48:17.314Z,4.60
2023-03-03T23:50:43.797Z,4.43
2023-03-03T23:53:10.255Z,4.22
2023-03-03T23:55:37.663Z,3.80
2023-03-03T23:58:05.317Z,4.72
